sensor_id;sensor_type;location;lat;lon;timestamp;temperature;humidity
782;DHT22;374;52.568;13.402;2022-10-29T00:00:09;17.20;99.90
782;DHT22;374;52.568;13.402;2022-10-29T00:02:35;17.20;99.90
782;DHT22;374;52.568;13.402;2022-10-29T00:05:00;17.10;99.90
782;DHT22;374;52.568;13.402;2022-10-29T00:07:26;17.10;99.90
782;DHT22;374;52.568;13.402;2022-10-29T00:09:51;17.10;99.90
782;DHT22;374;52.568;13.402;2022-10-29T00:12:17;17.10;99.90
782;DHT22;374;52.568;13.402;2022-10-29T00:14:42;17.40;99.90
782;DHT22;374;52.568;13.402;2022-10-29T00:17:08;16.90;99.90
782;DHT22;374;52.568;13.402;2022-10-29T00:19:33;17.00;99.90
782;DHT22;374;52.568;13.402;2022-10-29T00:21:59;16.80;99.90
782;DHT22;374;52.568;13.402;2022-10-29T00:24:24;17.10;99.90
782;DHT22;374;52.568;13.402;2022-10-29T00:26:50;17.00;99.90
782;DHT22;374;52.568;13.402;2022-10-29T00:29:15;17.10;99.90
782;DHT22;374;52.568;13.402;2022-10-29T00:31:44;17.10;99.90
782;DHT22;374;52.568;13.402;2022-10-29T00:34:09;17.10;99.90
782;DHT22;374;52.568;13.402;2022-10-29T00:36:35;17.00;99.90
782;DHT22;374;52.568;13.402;2022-10-29T00:39:00;17.10;99.90
782;DHT22;374;52.568;13.402;2022-10-29T00:41:28;17.00;99.90
782;DHT22;374;52.568;13.402;2022-10-29T00:46:50;17.00;99.90
782;DHT22;374;52.568;13.402;2022-10-29T00:49:16;17.00;99.90
782;DHT22;374;52.568;13.402;2022-10-29T00:51:43;17.00;99.90
782;DHT22;374;52.568;13.402;2022-10-29T00:54:11;17.00;99.90
782;DHT22;374;52.568;13.402;2022-10-29T00:56:52;17.00;99.90
782;DHT22;374;52.568;13.402;2022-10-29T00:59:18;17.00;99.90
782;DHT22;374;52.568;13.402;2022-10-29T01:01:45;16.90;99.90
782;DHT22;374;52.568;13.402;2022-10-29T01:04:15;17.00;99.90
782;DHT22;374;52.568;13.402;2022-10-29T01:06:46;17.00;99.90
782;DHT22;374;52.568;13.402;2022-10-29T01:09:14;17.00;99.90
782;DHT22;374;52.568;13.402;2022-10-29T01:29:16;16.90;99.90
782;DHT22;374;52.568;13.402;2022-10-29T01:31:54;16.90;99.90
782;DHT22;374;52.568;13.402;2022-10-29T01:34:31;16.90;99.90
782;DHT22;374;52.568;13.402;2022-10-29T01:37:31;16.90;99.90
782;DHT22;374;52.568;13.402;2022-10-29T01:40:23;16.80;99.90
782;DHT22;374;52.568;13.402;2022-10-29T01:43:10;16.90;99.90
782;DHT22;374;52.568;13.402;2022-10-29T01:45:54;16.80;99.90
782;DHT22;374;52.568;13.402;2022-10-29T01:48:45;16.80;99.90
782;DHT22;374;52.568;13.402;2022-10-29T01:51:22;16.80;99.90
782;DHT22;374;52.568;13.402;2022-10-29T01:53:49;16.80;99.90
782;DHT22;374;52.568;13.402;2022-10-29T01:56:15;17.30;99.90
782;DHT22;374;52.568;13.402;2022-10-29T01:58:45;16.60;99.90
782;DHT22;374;52.568;13.402;2022-10-29T02:01:33;16.70;99.90
782;DHT22;374;52.568;13.402;2022-10-29T02:09:59;16.70;99.90
782;DHT22;374;52.568;13.402;2022-10-29T02:12:35;16.70;99.90
782;DHT22;374;52.568;13.402;2022-10-29T02:15:13;16.40;99.90
782;DHT22;374;52.568;13.402;2022-10-29T02:17:44;16.90;99.90
782;DHT22;374;52.568;13.402;2022-10-29T02:20:11;16.60;99.90
782;DHT22;374;52.568;13.402;2022-10-29T02:22:37;16.60;99.90
782;DHT22;374;52.568;13.402;2022-10-29T02:25:08;16.90;99.90
782;DHT22;374;52.568;13.402;2022-10-29T02:27:35;16.60;99.90
782;DHT22;374;52.568;13.402;2022-10-29T02:30:04;16.90;99.90
782;DHT22;374;52.568;13.402;2022-10-29T02:32:36;16.60;99.90
782;DHT22;374;52.568;13.402;2022-10-29T02:35:07;16.60;99.90
782;DHT22;374;52.568;13.402;2022-10-29T02:37:35;16.50;99.90
782;DHT22;374;52.568;13.402;2022-10-29T02:42:38;16.50;99.90
782;DHT22;374;52.568;13.402;2022-10-29T02:45:11;16.50;99.90
782;DHT22;374;52.568;13.402;2022-10-29T02:47:45;16.50;99.90
782;DHT22;374;52.568;13.402;2022-10-29T02:50:15;16.40;99.90
782;DHT22;374;52.568;13.402;2022-10-29T02:52:40;16.70;99.90
782;DHT22;374;52.568;13.402;2022-10-29T02:55:06;16.40;99.90
782;DHT22;374;52.568;13.402;2022-10-29T02:57:32;16.40;99.90
782;DHT22;374;52.568;13.402;2022-10-29T03:00:05;16.40;99.90
782;DHT22;374;52.568;13.402;2022-10-29T03:02:33;16.80;99.90
782;DHT22;374;52.568;13.402;2022-10-29T03:04:59;16.40;99.90
782;DHT22;374;52.568;13.402;2022-10-29T03:07:27;16.40;99.90
782;DHT22;374;52.568;13.402;2022-10-29T03:09:58;16.40;99.90
782;DHT22;374;52.568;13.402;2022-10-29T03:12:29;16.30;99.90
782;DHT22;374;52.568;13.402;2022-10-29T03:15:00;16.30;99.90
782;DHT22;374;52.568;13.402;2022-10-29T03:17:30;16.30;99.90
782;DHT22;374;52.568;13.402;2022-10-29T03:19:56;16.70;99.90
782;DHT22;374;52.568;13.402;2022-10-29T03:22:24;16.30;99.90
782;DHT22;374;52.568;13.402;2022-10-29T03:24:50;16.30;99.90
782;DHT22;374;52.568;13.402;2022-10-29T03:27:15;16.60;99.90
782;DHT22;374;52.568;13.402;2022-10-29T03:29:41;15.90;99.90
782;DHT22;374;52.568;13.402;2022-10-29T03:32:07;16.40;99.90
782;DHT22;374;52.568;13.402;2022-10-29T03:34:35;16.30;99.90
782;DHT22;374;52.568;13.402;2022-10-29T03:37:00;16.50;99.90
782;DHT22;374;52.568;13.402;2022-10-29T03:39:29;16.50;99.90
782;DHT22;374;52.568;13.402;2022-10-29T03:41:54;16.60;99.90
782;DHT22;374;52.568;13.402;2022-10-29T03:44:21;16.20;99.90
782;DHT22;374;52.568;13.402;2022-10-29T03:46:52;16.20;99.90
782;DHT22;374;52.568;13.402;2022-10-29T03:49:27;16.30;99.90
782;DHT22;374;52.568;13.402;2022-10-29T03:52:28;16.20;99.90
782;DHT22;374;52.568;13.402;2022-10-29T03:55:17;16.20;99.90
782;DHT22;374;52.568;13.402;2022-10-29T03:57:48;16.20;99.90
782;DHT22;374;52.568;13.402;2022-10-29T04:00:18;16.20;99.90
782;DHT22;374;52.568;13.402;2022-10-29T04:02:46;16.20;99.90
782;DHT22;374;52.568;13.402;2022-10-29T04:05:26;16.20;99.90
782;DHT22;374;52.568;13.402;2022-10-29T04:08:21;16.20;99.90
782;DHT22;374;52.568;13.402;2022-10-29T04:10:48;16.20;99.90
782;DHT22;374;52.568;13.402;2022-10-29T04:13:15;16.40;99.90
782;DHT22;374;52.568;13.402;2022-10-29T04:15:40;16.50;99.90
782;DHT22;374;52.568;13.402;2022-10-29T04:18:07;16.10;99.90
782;DHT22;374;52.568;13.402;2022-10-29T04:20:33;16.10;99.90
782;DHT22;374;52.568;13.402;2022-10-29T04:22:59;16.30;99.90
782;DHT22;374;52.568;13.402;2022-10-29T04:25:25;16.20;99.90
782;DHT22;374;52.568;13.402;2022-10-29T04:27:53;16.10;99.90
782;DHT22;374;52.568;13.402;2022-10-29T04:30:18;16.10;99.90
782;DHT22;374;52.568;13.402;2022-10-29T04:32:44;16.10;99.90
782;DHT22;374;52.568;13.402;2022-10-29T04:35:10;16.10;99.90
782;DHT22;374;52.568;13.402;2022-10-29T04:37:36;16.10;99.90
782;DHT22;374;52.568;13.402;2022-10-29T04:40:01;16.10;99.90
782;DHT22;374;52.568;13.402;2022-10-29T04:42:27;16.10;99.90
782;DHT22;374;52.568;13.402;2022-10-29T04:44:52;16.60;99.90
782;DHT22;374;52.568;13.402;2022-10-29T04:47:18;16.10;99.90
782;DHT22;374;52.568;13.402;2022-10-29T04:49:43;16.10;99.90
782;DHT22;374;52.568;13.402;2022-10-29T04:52:09;16.10;99.90
782;DHT22;374;52.568;13.402;2022-10-29T04:54:34;16.10;99.90
782;DHT22;374;52.568;13.402;2022-10-29T04:57:00;16.10;99.90
782;DHT22;374;52.568;13.402;2022-10-29T04:59:25;16.10;99.90
782;DHT22;374;52.568;13.402;2022-10-29T05:01:51;16.10;99.90
782;DHT22;374;52.568;13.402;2022-10-29T05:04:16;16.10;99.90
782;DHT22;374;52.568;13.402;2022-10-29T05:06:42;16.10;99.90
782;DHT22;374;52.568;13.402;2022-10-29T05:09:07;16.00;99.90
782;DHT22;374;52.568;13.402;2022-10-29T05:11:33;16.10;99.90
782;DHT22;374;52.568;13.402;2022-10-29T05:13:58;16.20;99.90
782;DHT22;374;52.568;13.402;2022-10-29T05:16:24;16.00;99.90
782;DHT22;374;52.568;13.402;2022-10-29T05:18:49;16.00;99.90
782;DHT22;374;52.568;13.402;2022-10-29T05:21:15;15.90;99.90
782;DHT22;374;52.568;13.402;2022-10-29T05:23:41;16.50;99.90
782;DHT22;374;52.568;13.402;2022-10-29T05:26:06;16.00;99.90
782;DHT22;374;52.568;13.402;2022-10-29T05:28:32;15.80;99.90
782;DHT22;374;52.568;13.402;2022-10-29T05:30:59;16.00;99.90
782;DHT22;374;52.568;13.402;2022-10-29T05:33:25;16.00;99.90
782;DHT22;374;52.568;13.402;2022-10-29T05:35:51;15.80;99.90
782;DHT22;374;52.568;13.402;2022-10-29T05:38:16;15.90;99.90
782;DHT22;374;52.568;13.402;2022-10-29T05:40:42;15.90;99.90
782;DHT22;374;52.568;13.402;2022-10-29T05:43:10;15.90;99.90
782;DHT22;374;52.568;13.402;2022-10-29T05:45:35;16.20;99.90
782;DHT22;374;52.568;13.402;2022-10-29T05:48:03;15.90;99.90
782;DHT22;374;52.568;13.402;2022-10-29T05:50:29;15.90;99.90
782;DHT22;374;52.568;13.402;2022-10-29T05:53:02;15.90;99.90
782;DHT22;374;52.568;13.402;2022-10-29T05:55:29;15.80;99.90
782;DHT22;374;52.568;13.402;2022-10-29T05:58:02;15.80;99.90
782;DHT22;374;52.568;13.402;2022-10-29T06:00:30;15.80;99.90
782;DHT22;374;52.568;13.402;2022-10-29T06:03:01;16.10;99.90
782;DHT22;374;52.568;13.402;2022-10-29T06:06:02;15.90;99.90
782;DHT22;374;52.568;13.402;2022-10-29T06:08:32;15.80;99.90
782;DHT22;374;52.568;13.402;2022-10-29T06:11:03;15.80;99.90
782;DHT22;374;52.568;13.402;2022-10-29T06:13:33;15.80;99.90
782;DHT22;374;52.568;13.402;2022-10-29T06:16:09;16.10;99.90
782;DHT22;374;52.568;13.402;2022-10-29T06:18:46;15.80;99.90
782;DHT22;374;52.568;13.402;2022-10-29T06:21:16;16.10;99.90
782;DHT22;374;52.568;13.402;2022-10-29T06:23:47;15.80;99.90
782;DHT22;374;52.568;13.402;2022-10-29T06:26:15;15.80;99.90
782;DHT22;374;52.568;13.402;2022-10-29T06:28:42;15.80;99.90
782;DHT22;374;52.568;13.402;2022-10-29T06:31:13;15.80;99.90
782;DHT22;374;52.568;13.402;2022-10-29T06:33:49;15.80;99.90
782;DHT22;374;52.568;13.402;2022-10-29T06:36:20;15.80;99.90
782;DHT22;374;52.568;13.402;2022-10-29T06:38:50;16.30;99.90
782;DHT22;374;52.568;13.402;2022-10-29T06:41:21;16.00;99.90
782;DHT22;374;52.568;13.402;2022-10-29T06:43:54;15.80;99.90
782;DHT22;374;52.568;13.402;2022-10-29T06:46:31;15.80;99.90
782;DHT22;374;52.568;13.402;2022-10-29T06:49:09;15.90;99.90
782;DHT22;374;52.568;13.402;2022-10-29T06:51:48;15.80;99.90
782;DHT22;374;52.568;13.402;2022-10-29T06:54:21;15.90;99.90
782;DHT22;374;52.568;13.402;2022-10-29T06:56:54;15.80;99.90
782;DHT22;374;52.568;13.402;2022-10-29T06:59:24;15.70;99.90
782;DHT22;374;52.568;13.402;2022-10-29T07:02:01;15.90;99.90
782;DHT22;374;52.568;13.402;2022-10-29T07:04:33;15.90;99.90
782;DHT22;374;52.568;13.402;2022-10-29T07:06:58;16.20;99.90
782;DHT22;374;52.568;13.402;2022-10-29T07:09:24;15.70;99.90
782;DHT22;374;52.568;13.402;2022-10-29T07:11:49;15.80;99.90
782;DHT22;374;52.568;13.402;2022-10-29T07:14:15;15.90;99.90
782;DHT22;374;52.568;13.402;2022-10-29T07:16:40;15.90;99.90
782;DHT22;374;52.568;13.402;2022-10-29T07:19:06;16.00;99.90
782;DHT22;374;52.568;13.402;2022-10-29T07:21:31;16.00;99.90
782;DHT22;374;52.568;13.402;2022-10-29T07:23:57;16.00;99.90
782;DHT22;374;52.568;13.402;2022-10-29T07:26:22;16.10;99.90
782;DHT22;374;52.568;13.402;2022-10-29T07:28:48;16.10;99.90
782;DHT22;374;52.568;13.402;2022-10-29T07:31:13;16.30;99.90
782;DHT22;374;52.568;13.402;2022-10-29T07:33:39;15.80;99.90
782;DHT22;374;52.568;13.402;2022-10-29T07:36:06;16.10;99.90
782;DHT22;374;52.568;13.402;2022-10-29T07:38:37;16.10;99.90
782;DHT22;374;52.568;13.402;2022-10-29T07:41:03;16.50;99.90
782;DHT22;374;52.568;13.402;2022-10-29T07:43:29;16.10;99.90
782;DHT22;374;52.568;13.402;2022-10-29T07:45:54;16.20;99.90
782;DHT22;374;52.568;13.402;2022-10-29T07:48:20;16.20;99.90
782;DHT22;374;52.568;13.402;2022-10-29T07:50:46;16.20;99.90
782;DHT22;374;52.568;13.402;2022-10-29T07:53:12;16.20;99.90
782;DHT22;374;52.568;13.402;2022-10-29T07:55:41;16.30;99.90
782;DHT22;374;52.568;13.402;2022-10-29T07:58:10;16.20;99.90
782;DHT22;374;52.568;13.402;2022-10-29T08:00:38;16.40;99.90
782;DHT22;374;52.568;13.402;2022-10-29T08:03:04;16.50;99.90
782;DHT22;374;52.568;13.402;2022-10-29T08:05:30;16.20;99.90
782;DHT22;374;52.568;13.402;2022-10-29T08:07:56;16.40;99.90
782;DHT22;374;52.568;13.402;2022-10-29T08:10:22;16.40;99.90
782;DHT22;374;52.568;13.402;2022-10-29T08:12:54;16.80;99.90
782;DHT22;374;52.568;13.402;2022-10-29T08:15:22;16.40;99.90
782;DHT22;374;52.568;13.402;2022-10-29T08:17:51;16.50;99.90
782;DHT22;374;52.568;13.402;2022-10-29T08:20:18;16.70;99.90
782;DHT22;374;52.568;13.402;2022-10-29T08:22:44;16.50;99.90
782;DHT22;374;52.568;13.402;2022-10-29T08:25:12;16.60;99.90
782;DHT22;374;52.568;13.402;2022-10-29T08:27:42;16.50;99.90
782;DHT22;374;52.568;13.402;2022-10-29T08:30:11;17.00;99.90
782;DHT22;374;52.568;13.402;2022-10-29T08:32:46;16.70;99.90
782;DHT22;374;52.568;13.402;2022-10-29T08:35:13;16.70;99.90
782;DHT22;374;52.568;13.402;2022-10-29T08:37:43;16.70;99.90
782;DHT22;374;52.568;13.402;2022-10-29T08:40:27;16.80;99.90
782;DHT22;374;52.568;13.402;2022-10-29T08:45:39;16.80;99.90
782;DHT22;374;52.568;13.402;2022-10-29T08:48:27;16.90;99.90
782;DHT22;374;52.568;13.402;2022-10-29T08:51:04;16.90;99.90
782;DHT22;374;52.568;13.402;2022-10-29T08:53:38;17.00;99.90
782;DHT22;374;52.568;13.402;2022-10-29T08:56:15;17.00;99.90
782;DHT22;374;52.568;13.402;2022-10-29T09:01:21;17.10;99.90
782;DHT22;374;52.568;13.402;2022-10-29T09:03:48;17.20;99.90
782;DHT22;374;52.568;13.402;2022-10-29T09:14:24;17.50;99.90
782;DHT22;374;52.568;13.402;2022-10-29T09:20:04;17.60;99.90
782;DHT22;374;52.568;13.402;2022-10-29T09:25:28;17.70;99.90
782;DHT22;374;52.568;13.402;2022-10-29T09:30:29;17.70;99.90
782;DHT22;374;52.568;13.402;2022-10-29T09:35:40;17.80;99.90
782;DHT22;374;52.568;13.402;2022-10-29T09:38:31;17.80;99.90
782;DHT22;374;52.568;13.402;2022-10-29T09:41:00;17.80;99.90
782;DHT22;374;52.568;13.402;2022-10-29T09:49:01;17.90;99.90
782;DHT22;374;52.568;13.402;2022-10-29T09:54:01;17.90;99.90
782;DHT22;374;52.568;13.402;2022-10-29T09:56:28;17.90;99.90
782;DHT22;374;52.568;13.402;2022-10-29T09:59:00;17.90;99.90
782;DHT22;374;52.568;13.402;2022-10-29T10:01:31;17.90;99.90
782;DHT22;374;52.568;13.402;2022-10-29T10:03:58;17.90;99.90
782;DHT22;374;52.568;13.402;2022-10-29T10:06:27;17.90;99.90
782;DHT22;374;52.568;13.402;2022-10-29T10:09:03;18.00;99.90
782;DHT22;374;52.568;13.402;2022-10-29T10:11:36;18.00;99.90
782;DHT22;374;52.568;13.402;2022-10-29T10:14:13;18.00;99.90
782;DHT22;374;52.568;13.402;2022-10-29T10:16:41;18.00;99.90
782;DHT22;374;52.568;13.402;2022-10-29T10:19:24;18.00;99.90
782;DHT22;374;52.568;13.402;2022-10-29T10:21:58;18.00;99.90
782;DHT22;374;52.568;13.402;2022-10-29T10:24:30;18.00;99.90
782;DHT22;374;52.568;13.402;2022-10-29T10:26:56;18.00;99.90
782;DHT22;374;52.568;13.402;2022-10-29T10:29:23;18.00;99.90
782;DHT22;374;52.568;13.402;2022-10-29T10:32:08;18.00;99.90
782;DHT22;374;52.568;13.402;2022-10-29T10:34:40;18.00;99.90
782;DHT22;374;52.568;13.402;2022-10-29T10:37:17;18.10;99.90
782;DHT22;374;52.568;13.402;2022-10-29T10:39:47;18.10;99.90
782;DHT22;374;52.568;13.402;2022-10-29T10:42:36;18.10;99.90
782;DHT22;374;52.568;13.402;2022-10-29T10:45:36;18.10;99.90
782;DHT22;374;52.568;13.402;2022-10-29T10:48:07;18.10;99.90
782;DHT22;374;52.568;13.402;2022-10-29T10:50:34;18.10;99.90
782;DHT22;374;52.568;13.402;2022-10-29T10:53:03;18.10;99.90
782;DHT22;374;52.568;13.402;2022-10-29T10:55:35;18.10;99.90
782;DHT22;374;52.568;13.402;2022-10-29T11:01:05;18.10;99.90
782;DHT22;374;52.568;13.402;2022-10-29T11:03:57;18.10;99.90
782;DHT22;374;52.568;13.402;2022-10-29T11:06:28;18.10;99.90
782;DHT22;374;52.568;13.402;2022-10-29T11:09:07;18.10;99.90
782;DHT22;374;52.568;13.402;2022-10-29T11:11:43;18.20;99.90
782;DHT22;374;52.568;13.402;2022-10-29T11:14:32;18.30;99.90
782;DHT22;374;52.568;13.402;2022-10-29T11:17:06;18.40;99.90
782;DHT22;374;52.568;13.402;2022-10-29T11:19:44;18.20;99.90
782;DHT22;374;52.568;13.402;2022-10-29T11:22:37;18.30;99.90
782;DHT22;374;52.568;13.402;2022-10-29T11:25:15;18.30;99.90
782;DHT22;374;52.568;13.402;2022-10-29T11:27:55;18.30;99.90
782;DHT22;374;52.568;13.402;2022-10-29T11:30:23;18.30;99.90
782;DHT22;374;52.568;13.402;2022-10-29T11:35:44;18.30;99.90
782;DHT22;374;52.568;13.402;2022-10-29T11:38:21;18.30;99.90
782;DHT22;374;52.568;13.402;2022-10-29T11:43:36;18.20;99.90
782;DHT22;374;52.568;13.402;2022-10-29T11:54:43;18.20;99.90
782;DHT22;374;52.568;13.402;2022-10-29T11:57:32;18.20;99.90
782;DHT22;374;52.568;13.402;2022-10-29T12:00:22;18.20;99.90
782;DHT22;374;52.568;13.402;2022-10-29T12:08:43;18.20;99.90
782;DHT22;374;52.568;13.402;2022-10-29T12:11:53;18.20;99.90
782;DHT22;374;52.568;13.402;2022-10-29T12:17:08;18.30;99.90
782;DHT22;374;52.568;13.402;2022-10-29T12:22:48;18.30;99.90
782;DHT22;374;52.568;13.402;2022-10-29T12:28:52;18.40;99.90
782;DHT22;374;52.568;13.402;2022-10-29T12:40:15;18.50;99.90
782;DHT22;374;52.568;13.402;2022-10-29T12:42:44;18.50;99.90
782;DHT22;374;52.568;13.402;2022-10-29T12:48:10;18.50;99.90
782;DHT22;374;52.568;13.402;2022-10-29T12:57:04;18.50;99.90
782;DHT22;374;52.568;13.402;2022-10-29T12:59:40;18.50;99.90
782;DHT22;374;52.568;13.402;2022-10-29T13:02:57;18.50;99.90
782;DHT22;374;52.568;13.402;2022-10-29T13:05:41;18.50;99.90
782;DHT22;374;52.568;13.402;2022-10-29T13:08:38;18.40;99.90
782;DHT22;374;52.568;13.402;2022-10-29T13:11:30;18.40;99.90
782;DHT22;374;52.568;13.402;2022-10-29T13:17:47;18.40;99.90
782;DHT22;374;52.568;13.402;2022-10-29T13:20:52;18.40;99.90
782;DHT22;374;52.568;13.402;2022-10-29T14:37:39;18.30;99.90
782;DHT22;374;52.568;13.402;2022-10-29T14:40:21;18.30;99.90
782;DHT22;374;52.568;13.402;2022-10-29T14:42:54;18.50;99.90
782;DHT22;374;52.568;13.402;2022-10-29T14:45:30;18.30;99.90
782;DHT22;374;52.568;13.402;2022-10-29T14:48:07;18.30;99.90
782;DHT22;374;52.568;13.402;2022-10-29T14:50:47;18.30;99.90
782;DHT22;374;52.568;13.402;2022-10-29T14:53:30;18.50;99.90
782;DHT22;374;52.568;13.402;2022-10-29T14:56:09;18.30;99.90
782;DHT22;374;52.568;13.402;2022-10-29T14:59:26;18.70;99.90
782;DHT22;374;52.568;13.402;2022-10-29T15:02:00;18.30;99.90
782;DHT22;374;52.568;13.402;2022-10-29T15:04:46;18.40;99.90
782;DHT22;374;52.568;13.402;2022-10-29T15:07:29;18.30;99.90
782;DHT22;374;52.568;13.402;2022-10-29T15:10:20;18.30;99.90
782;DHT22;374;52.568;13.402;2022-10-29T15:12:51;18.30;99.90
782;DHT22;374;52.568;13.402;2022-10-29T15:18:50;18.30;99.90
782;DHT22;374;52.568;13.402;2022-10-29T15:21:28;18.30;99.90
782;DHT22;374;52.568;13.402;2022-10-29T15:24:08;18.30;99.90
782;DHT22;374;52.568;13.402;2022-10-29T15:26:51;18.30;99.90
782;DHT22;374;52.568;13.402;2022-10-29T15:29:25;18.30;99.90
782;DHT22;374;52.568;13.402;2022-10-29T15:31:54;18.30;99.90
782;DHT22;374;52.568;13.402;2022-10-29T15:34:32;18.30;99.90
782;DHT22;374;52.568;13.402;2022-10-29T15:37:42;18.30;99.90
782;DHT22;374;52.568;13.402;2022-10-29T15:40:23;18.30;99.90
782;DHT22;374;52.568;13.402;2022-10-29T15:42:54;18.30;99.90
782;DHT22;374;52.568;13.402;2022-10-29T15:45:26;18.30;99.90
782;DHT22;374;52.568;13.402;2022-10-29T15:50:47;18.40;99.90
782;DHT22;374;52.568;13.402;2022-10-29T15:53:17;18.30;99.90
782;DHT22;374;52.568;13.402;2022-10-29T15:55:50;18.30;99.90
782;DHT22;374;52.568;13.402;2022-10-29T15:58:28;18.30;99.90
782;DHT22;374;52.568;13.402;2022-10-29T16:01:08;18.20;99.90
782;DHT22;374;52.568;13.402;2022-10-29T16:03:38;18.60;99.90
782;DHT22;374;52.568;13.402;2022-10-29T16:06:43;18.20;99.90
782;DHT22;374;52.568;13.402;2022-10-29T16:09:19;18.40;99.90
782;DHT22;374;52.568;13.402;2022-10-29T16:11:54;18.20;99.90
782;DHT22;374;52.568;13.402;2022-10-29T16:14:34;18.20;99.90
782;DHT22;374;52.568;13.402;2022-10-29T16:20:20;18.20;99.90
782;DHT22;374;52.568;13.402;2022-10-29T18:08:33;18.10;99.90
782;DHT22;374;52.568;13.402;2022-10-29T18:14:22;18.00;99.90
782;DHT22;374;52.568;13.402;2022-10-29T18:16:56;18.30;99.90
782;DHT22;374;52.568;13.402;2022-10-29T18:19:29;18.40;99.90
782;DHT22;374;52.568;13.402;2022-10-29T18:22:38;18.00;99.90
782;DHT22;374;52.568;13.402;2022-10-29T18:25:32;18.40;99.90
782;DHT22;374;52.568;13.402;2022-10-29T20:31:11;17.30;99.90
782;DHT22;374;52.568;13.402;2022-10-29T20:37:38;17.30;99.90
782;DHT22;374;52.568;13.402;2022-10-29T21:14:58;17.10;99.90
782;DHT22;374;52.568;13.402;2022-10-29T21:17:41;17.50;99.90
782;DHT22;374;52.568;13.402;2022-10-29T21:20:20;17.10;99.90
782;DHT22;374;52.568;13.402;2022-10-29T21:23:30;17.10;99.90
782;DHT22;374;52.568;13.402;2022-10-29T21:26:03;17.10;99.90
782;DHT22;374;52.568;13.402;2022-10-29T22:06:59;17.00;99.90
782;DHT22;374;52.568;13.402;2022-10-29T22:09:52;17.30;99.90
782;DHT22;374;52.568;13.402;2022-10-29T22:12:18;17.00;99.90
782;DHT22;374;52.568;13.402;2022-10-29T22:14:58;17.00;99.90
782;DHT22;374;52.568;13.402;2022-10-29T22:17:42;17.10;99.90
782;DHT22;374;52.568;13.402;2022-10-29T22:20:35;17.00;99.90
782;DHT22;374;52.568;13.402;2022-10-29T22:23:40;17.00;99.90
782;DHT22;374;52.568;13.402;2022-10-29T22:26:13;17.00;99.90
782;DHT22;374;52.568;13.402;2022-10-29T22:29:18;17.00;99.90
782;DHT22;374;52.568;13.402;2022-10-29T22:39:05;17.00;99.90
782;DHT22;374;52.568;13.402;2022-10-29T22:41:55;17.00;99.90
782;DHT22;374;52.568;13.402;2022-10-29T22:44:33;17.00;99.90
782;DHT22;374;52.568;13.402;2022-10-29T22:47:14;17.00;99.90
782;DHT22;374;52.568;13.402;2022-10-29T22:49:45;16.90;99.90
782;DHT22;374;52.568;13.402;2022-10-29T22:52:16;16.90;99.90
782;DHT22;374;52.568;13.402;2022-10-29T22:54:43;16.90;99.90
782;DHT22;374;52.568;13.402;2022-10-29T22:57:14;16.90;99.90
782;DHT22;374;52.568;13.402;2022-10-29T22:59:44;17.00;99.90
782;DHT22;374;52.568;13.402;2022-10-29T23:02:15;16.90;99.90
782;DHT22;374;52.568;13.402;2022-10-29T23:04:48;16.90;99.90
782;DHT22;374;52.568;13.402;2022-10-29T23:07:18;16.80;99.90
782;DHT22;374;52.568;13.402;2022-10-29T23:09:48;17.30;99.90
782;DHT22;374;52.568;13.402;2022-10-29T23:12:19;16.90;99.90
782;DHT22;374;52.568;13.402;2022-10-29T23:21:30;16.80;99.90
782;DHT22;374;52.568;13.402;2022-10-29T23:24:26;17.10;99.90
782;DHT22;374;52.568;13.402;2022-10-29T23:27:20;17.10;99.90
782;DHT22;374;52.568;13.402;2022-10-29T23:30:08;16.80;99.90
782;DHT22;374;52.568;13.402;2022-10-29T23:32:34;16.80;99.90
782;DHT22;374;52.568;13.402;2022-10-29T23:35:03;16.80;99.90
782;DHT22;374;52.568;13.402;2022-10-29T23:37:40;16.80;99.90
782;DHT22;374;52.568;13.402;2022-10-29T23:40:11;16.70;99.90
782;DHT22;374;52.568;13.402;2022-10-29T23:42:42;16.80;99.90
782;DHT22;374;52.568;13.402;2022-10-29T23:45:13;17.10;99.90
782;DHT22;374;52.568;13.402;2022-10-29T23:47:45;16.70;99.90
782;DHT22;374;52.568;13.402;2022-10-29T23:50:10;16.90;99.90
782;DHT22;374;52.568;13.402;2022-10-29T23:52:36;16.70;99.90
782;DHT22;374;52.568;13.402;2022-10-29T23:55:05;16.60;99.90
782;DHT22;374;52.568;13.402;2022-10-29T23:57:30;16.60;99.90
